Essington, United Kingdom
Current Conditions -  °F | °C
As of 12:20 PM on Tuesday 27 Jan 2015 (Local Time) from EGBB Reporting Station
Broken Clouds Broken Clouds  
Wind Chill: 42°   Ceiling: 1900
Heat Index: 45°   Visibility: 6mi
Dew Point: 39°   Wind: 5mph
Humidity: 81%   Direction: 260°W
Pressure: 30.3"   Gusts: NA
Location:  52.63°N, 2.06°W
Report Text: EGBB 271220Z 26004KT 220V290 9999 BKN019 07/04 Q1026
Loading
Personal Weather Stations






























Interactive Weather Map New forecast layout! Learn more

10-Day Weather Forecast

Advertisements
Track Severe Weather on mobile